sensor_id;sensor_type;location;lat;lon;timestamp;pressure;altitude;pressure_sealevel;temperature
19282;BMP180;9774;52.034;5.342;2023-08-06T00:02:26;100266.00;;;21.70
19282;BMP180;9774;52.034;5.342;2023-08-06T00:04:53;100262.00;;;21.70
19282;BMP180;9774;52.034;5.342;2023-08-06T00:07:20;100266.00;;;21.70
19282;BMP180;9774;52.034;5.342;2023-08-06T00:09:48;100262.00;;;21.70
19282;BMP180;9774;52.034;5.342;2023-08-06T00:12:15;100261.00;;;21.70
19282;BMP180;9774;52.034;5.342;2023-08-06T00:14:42;100266.00;;;21.70
19282;BMP180;9774;52.034;5.342;2023-08-06T00:17:09;100260.00;;;21.70
19282;BMP180;9774;52.034;5.342;2023-08-06T00:19:36;100262.00;;;21.70
19282;BMP180;9774;52.034;5.342;2023-08-06T00:22:03;100265.00;;;21.70
19282;BMP180;9774;52.034;5.342;2023-08-06T00:24:31;100260.00;;;21.70
19282;BMP180;9774;52.034;5.342;2023-08-06T00:26:59;100264.00;;;21.70
19282;BMP180;9774;52.034;5.342;2023-08-06T00:29:26;100254.00;;;21.70
19282;BMP180;9774;52.034;5.342;2023-08-06T00:31:53;100256.00;;;21.70
19282;BMP180;9774;52.034;5.342;2023-08-06T00:34:20;100253.00;;;21.70
19282;BMP180;9774;52.034;5.342;2023-08-06T00:36:47;100254.00;;;21.70
19282;BMP180;9774;52.034;5.342;2023-08-06T00:39:14;100255.00;;;21.70
19282;BMP180;9774;52.034;5.342;2023-08-06T00:41:41;100260.00;;;21.70
19282;BMP180;9774;52.034;5.342;2023-08-06T00:44:09;100254.00;;;21.70
19282;BMP180;9774;52.034;5.342;2023-08-06T00:46:36;100258.00;;;21.70
19282;BMP180;9774;52.034;5.342;2023-08-06T00:49:04;100255.00;;;21.70
19282;BMP180;9774;52.034;5.342;2023-08-06T00:51:34;100257.00;;;21.70
19282;BMP180;9774;52.034;5.342;2023-08-06T00:54:02;100255.00;;;21.70
19282;BMP180;9774;52.034;5.342;2023-08-06T00:56:29;100251.00;;;21.70
19282;BMP180;9774;52.034;5.342;2023-08-06T00:58:56;100253.00;;;21.70
19282;BMP180;9774;52.034;5.342;2023-08-06T01:01:24;100259.00;;;21.70
19282;BMP180;9774;52.034;5.342;2023-08-06T01:03:52;100251.00;;;21.70
19282;BMP180;9774;52.034;5.342;2023-08-06T01:06:33;100253.00;;;21.60
19282;BMP180;9774;52.034;5.342;2023-08-06T01:09:15;100250.00;;;21.60
19282;BMP180;9774;52.034;5.342;2023-08-06T01:11:59;100249.00;;;21.60
19282;BMP180;9774;52.034;5.342;2023-08-06T01:14:47;100242.00;;;21.60
19282;BMP180;9774;52.034;5.342;2023-08-06T01:17:20;100234.00;;;21.70
19282;BMP180;9774;52.034;5.342;2023-08-06T01:19:47;100243.00;;;21.70
19282;BMP180;9774;52.034;5.342;2023-08-06T01:22:15;100242.00;;;21.70
19282;BMP180;9774;52.034;5.342;2023-08-06T01:24:49;100241.00;;;21.60
19282;BMP180;9774;52.034;5.342;2023-08-06T01:27:26;100246.00;;;21.60
19282;BMP180;9774;52.034;5.342;2023-08-06T01:30:03;100242.00;;;21.60
19282;BMP180;9774;52.034;5.342;2023-08-06T01:32:34;100242.00;;;21.70
19282;BMP180;9774;52.034;5.342;2023-08-06T01:35:04;100242.00;;;21.70
19282;BMP180;9774;52.034;5.342;2023-08-06T01:37:33;100241.00;;;21.70
19282;BMP180;9774;52.034;5.342;2023-08-06T01:40:00;100243.00;;;21.70
19282;BMP180;9774;52.034;5.342;2023-08-06T01:42:27;100250.00;;;21.70
19282;BMP180;9774;52.034;5.342;2023-08-06T01:44:54;100248.00;;;21.70
19282;BMP180;9774;52.034;5.342;2023-08-06T01:47:21;100243.00;;;21.70
19282;BMP180;9774;52.034;5.342;2023-08-06T01:49:48;100240.00;;;21.70
19282;BMP180;9774;52.034;5.342;2023-08-06T01:52:17;100243.00;;;21.70
19282;BMP180;9774;52.034;5.342;2023-08-06T01:54:45;100252.00;;;21.70
19282;BMP180;9774;52.034;5.342;2023-08-06T01:57:12;100255.00;;;21.70
19282;BMP180;9774;52.034;5.342;2023-08-06T01:59:39;100245.00;;;21.70
19282;BMP180;9774;52.034;5.342;2023-08-06T02:02:06;100247.00;;;21.70
19282;BMP180;9774;52.034;5.342;2023-08-06T02:04:33;100251.00;;;21.70
19282;BMP180;9774;52.034;5.342;2023-08-06T02:07:00;100257.00;;;21.70
19282;BMP180;9774;52.034;5.342;2023-08-06T02:09:27;100251.00;;;21.70
19282;BMP180;9774;52.034;5.342;2023-08-06T02:11:55;100254.00;;;21.70
19282;BMP180;9774;52.034;5.342;2023-08-06T02:14:22;100250.00;;;21.70
19282;BMP180;9774;52.034;5.342;2023-08-06T02:16:49;100252.00;;;21.70
19282;BMP180;9774;52.034;5.342;2023-08-06T02:19:16;100251.00;;;21.60
19282;BMP180;9774;52.034;5.342;2023-08-06T02:21:43;100251.00;;;21.60
19282;BMP180;9774;52.034;5.342;2023-08-06T02:24:10;100249.00;;;21.70
19282;BMP180;9774;52.034;5.342;2023-08-06T02:26:37;100252.00;;;21.70
19282;BMP180;9774;52.034;5.342;2023-08-06T02:29:06;100247.00;;;21.60
19282;BMP180;9774;52.034;5.342;2023-08-06T02:31:33;100245.00;;;21.70
19282;BMP180;9774;52.034;5.342;2023-08-06T02:33:59;100245.00;;;21.60
19282;BMP180;9774;52.034;5.342;2023-08-06T02:36:26;100242.00;;;21.60
19282;BMP180;9774;52.034;5.342;2023-08-06T02:38:55;100245.00;;;21.60
19282;BMP180;9774;52.034;5.342;2023-08-06T02:41:21;100245.00;;;21.60
19282;BMP180;9774;52.034;5.342;2023-08-06T02:43:48;100237.00;;;21.60
19282;BMP180;9774;52.034;5.342;2023-08-06T02:46:17;100245.00;;;21.60
19282;BMP180;9774;52.034;5.342;2023-08-06T02:48:43;100243.00;;;21.60
19282;BMP180;9774;52.034;5.342;2023-08-06T02:51:10;100241.00;;;21.60
19282;BMP180;9774;52.034;5.342;2023-08-06T02:53:37;100241.00;;;21.60
19282;BMP180;9774;52.034;5.342;2023-08-06T02:56:04;100234.00;;;21.60
19282;BMP180;9774;52.034;5.342;2023-08-06T02:58:31;100232.00;;;21.60
19282;BMP180;9774;52.034;5.342;2023-08-06T03:01:02;100238.00;;;21.60
19282;BMP180;9774;52.034;5.342;2023-08-06T03:03:31;100227.00;;;21.60
19282;BMP180;9774;52.034;5.342;2023-08-06T03:05:59;100224.00;;;21.60
19282;BMP180;9774;52.034;5.342;2023-08-06T03:08:26;100230.00;;;21.60
19282;BMP180;9774;52.034;5.342;2023-08-06T03:10:53;100230.00;;;21.60
19282;BMP180;9774;52.034;5.342;2023-08-06T03:13:20;100229.00;;;21.60
19282;BMP180;9774;52.034;5.342;2023-08-06T03:15:53;100235.00;;;21.60
19282;BMP180;9774;52.034;5.342;2023-08-06T03:18:20;100236.00;;;21.70
19282;BMP180;9774;52.034;5.342;2023-08-06T03:20:49;100229.00;;;21.60
19282;BMP180;9774;52.034;5.342;2023-08-06T03:23:16;100234.00;;;21.70
19282;BMP180;9774;52.034;5.342;2023-08-06T03:25:43;100232.00;;;21.70
19282;BMP180;9774;52.034;5.342;2023-08-06T03:28:10;100228.00;;;21.70
19282;BMP180;9774;52.034;5.342;2023-08-06T03:30:38;100234.00;;;21.70
19282;BMP180;9774;52.034;5.342;2023-08-06T03:33:05;100232.00;;;21.70
19282;BMP180;9774;52.034;5.342;2023-08-06T03:35:32;100230.00;;;21.70
19282;BMP180;9774;52.034;5.342;2023-08-06T03:38:00;100222.00;;;21.70
19282;BMP180;9774;52.034;5.342;2023-08-06T03:40:27;100227.00;;;21.70
19282;BMP180;9774;52.034;5.342;2023-08-06T03:42:54;100233.00;;;21.70
19282;BMP180;9774;52.034;5.342;2023-08-06T03:45:21;100229.00;;;21.70
19282;BMP180;9774;52.034;5.342;2023-08-06T03:47:48;100231.00;;;21.70
19282;BMP180;9774;52.034;5.342;2023-08-06T03:50:15;100231.00;;;21.70
19282;BMP180;9774;52.034;5.342;2023-08-06T03:52:42;100234.00;;;21.70
19282;BMP180;9774;52.034;5.342;2023-08-06T03:55:10;100234.00;;;21.70
19282;BMP180;9774;52.034;5.342;2023-08-06T03:57:37;100230.00;;;21.70
19282;BMP180;9774;52.034;5.342;2023-08-06T04:00:05;100230.00;;;21.70
19282;BMP180;9774;52.034;5.342;2023-08-06T04:02:32;100232.00;;;21.70
19282;BMP180;9774;52.034;5.342;2023-08-06T04:05:01;100233.00;;;21.70
19282;BMP180;9774;52.034;5.342;2023-08-06T04:07:28;100235.00;;;21.70
19282;BMP180;9774;52.034;5.342;2023-08-06T04:09:57;100237.00;;;21.70
19282;BMP180;9774;52.034;5.342;2023-08-06T04:12:26;100229.00;;;21.70
19282;BMP180;9774;52.034;5.342;2023-08-06T04:14:55;100230.00;;;21.70
19282;BMP180;9774;52.034;5.342;2023-08-06T04:17:22;100234.00;;;21.70
19282;BMP180;9774;52.034;5.342;2023-08-06T04:19:51;100233.00;;;21.70
19282;BMP180;9774;52.034;5.342;2023-08-06T04:22:19;100230.00;;;21.70
19282;BMP180;9774;52.034;5.342;2023-08-06T04:24:47;100235.00;;;21.70
19282;BMP180;9774;52.034;5.342;2023-08-06T04:27:15;100238.00;;;21.70
19282;BMP180;9774;52.034;5.342;2023-08-06T04:29:44;100237.00;;;21.70
19282;BMP180;9774;52.034;5.342;2023-08-06T04:32:11;100241.00;;;21.70
19282;BMP180;9774;52.034;5.342;2023-08-06T04:34:38;100241.00;;;21.70
19282;BMP180;9774;52.034;5.342;2023-08-06T04:37:05;100247.00;;;21.70
19282;BMP180;9774;52.034;5.342;2023-08-06T04:39:32;100248.00;;;21.70
19282;BMP180;9774;52.034;5.342;2023-08-06T04:41:59;100252.00;;;21.70
19282;BMP180;9774;52.034;5.342;2023-08-06T04:44:26;100261.00;;;21.70
19282;BMP180;9774;52.034;5.342;2023-08-06T04:46:54;100254.00;;;21.70
19282;BMP180;9774;52.034;5.342;2023-08-06T04:49:21;100261.00;;;21.70
19282;BMP180;9774;52.034;5.342;2023-08-06T04:51:48;100255.00;;;21.70
19282;BMP180;9774;52.034;5.342;2023-08-06T04:54:16;100257.00;;;21.70
19282;BMP180;9774;52.034;5.342;2023-08-06T04:56:42;100252.00;;;21.70
19282;BMP180;9774;52.034;5.342;2023-08-06T04:59:09;100252.00;;;21.70
19282;BMP180;9774;52.034;5.342;2023-08-06T05:01:36;100259.00;;;21.70
19282;BMP180;9774;52.034;5.342;2023-08-06T05:04:05;100258.00;;;21.70
19282;BMP180;9774;52.034;5.342;2023-08-06T05:06:32;100255.00;;;21.70
19282;BMP180;9774;52.034;5.342;2023-08-06T05:08:58;100264.00;;;21.70
19282;BMP180;9774;52.034;5.342;2023-08-06T05:11:25;100266.00;;;21.70
19282;BMP180;9774;52.034;5.342;2023-08-06T05:13:52;100266.00;;;21.70
19282;BMP180;9774;52.034;5.342;2023-08-06T05:16:19;100276.00;;;21.70
19282;BMP180;9774;52.034;5.342;2023-08-06T05:18:46;100272.00;;;21.70
19282;BMP180;9774;52.034;5.342;2023-08-06T05:21:14;100282.00;;;21.70
19282;BMP180;9774;52.034;5.342;2023-08-06T05:23:42;100286.00;;;21.70
19282;BMP180;9774;52.034;5.342;2023-08-06T05:26:09;100289.00;;;21.70
19282;BMP180;9774;52.034;5.342;2023-08-06T05:28:36;100292.00;;;21.70
19282;BMP180;9774;52.034;5.342;2023-08-06T05:31:05;100290.00;;;21.70
19282;BMP180;9774;52.034;5.342;2023-08-06T05:33:32;100298.00;;;21.70
19282;BMP180;9774;52.034;5.342;2023-08-06T05:35:59;100304.00;;;21.70
19282;BMP180;9774;52.034;5.342;2023-08-06T05:38:29;100304.00;;;21.70
19282;BMP180;9774;52.034;5.342;2023-08-06T05:40:56;100303.00;;;21.70
19282;BMP180;9774;52.034;5.342;2023-08-06T05:43:23;100309.00;;;21.70
19282;BMP180;9774;52.034;5.342;2023-08-06T05:45:50;100308.00;;;21.70
19282;BMP180;9774;52.034;5.342;2023-08-06T05:48:17;100322.00;;;21.70
19282;BMP180;9774;52.034;5.342;2023-08-06T05:50:44;100324.00;;;21.70
19282;BMP180;9774;52.034;5.342;2023-08-06T05:53:11;100325.00;;;21.70
19282;BMP180;9774;52.034;5.342;2023-08-06T05:55:40;100326.00;;;21.70
19282;BMP180;9774;52.034;5.342;2023-08-06T05:58:07;100323.00;;;21.70
19282;BMP180;9774;52.034;5.342;2023-08-06T06:00:34;100326.00;;;21.70
19282;BMP180;9774;52.034;5.342;2023-08-06T06:03:01;100331.00;;;21.70
19282;BMP180;9774;52.034;5.342;2023-08-06T06:05:28;100333.00;;;21.70
19282;BMP180;9774;52.034;5.342;2023-08-06T06:07:55;100337.00;;;21.70
19282;BMP180;9774;52.034;5.342;2023-08-06T06:10:23;100335.00;;;21.70
19282;BMP180;9774;52.034;5.342;2023-08-06T06:12:51;100345.00;;;21.80
19282;BMP180;9774;52.034;5.342;2023-08-06T06:15:18;100343.00;;;21.80
19282;BMP180;9774;52.034;5.342;2023-08-06T06:17:45;100340.00;;;21.80
19282;BMP180;9774;52.034;5.342;2023-08-06T06:20:12;100348.00;;;21.80
19282;BMP180;9774;52.034;5.342;2023-08-06T06:22:40;100354.00;;;21.80
19282;BMP180;9774;52.034;5.342;2023-08-06T06:25:08;100354.00;;;21.80
19282;BMP180;9774;52.034;5.342;2023-08-06T06:27:36;100356.00;;;21.80
19282;BMP180;9774;52.034;5.342;2023-08-06T06:30:07;100361.00;;;21.70
19282;BMP180;9774;52.034;5.342;2023-08-06T06:32:35;100361.00;;;21.80
19282;BMP180;9774;52.034;5.342;2023-08-06T06:35:02;100364.00;;;21.80
19282;BMP180;9774;52.034;5.342;2023-08-06T06:37:30;100365.00;;;21.80
19282;BMP180;9774;52.034;5.342;2023-08-06T06:39:57;100371.00;;;21.70
19282;BMP180;9774;52.034;5.342;2023-08-06T06:42:24;100373.00;;;21.70
19282;BMP180;9774;52.034;5.342;2023-08-06T06:44:52;100378.00;;;21.70
19282;BMP180;9774;52.034;5.342;2023-08-06T06:47:21;100372.00;;;21.70
19282;BMP180;9774;52.034;5.342;2023-08-06T06:49:48;100383.00;;;21.70
19282;BMP180;9774;52.034;5.342;2023-08-06T06:52:16;100386.00;;;21.70
19282;BMP180;9774;52.034;5.342;2023-08-06T06:54:43;100385.00;;;21.70
19282;BMP180;9774;52.034;5.342;2023-08-06T06:57:10;100384.00;;;21.70
19282;BMP180;9774;52.034;5.342;2023-08-06T06:59:38;100382.00;;;21.70
19282;BMP180;9774;52.034;5.342;2023-08-06T07:02:06;100384.00;;;21.70
19282;BMP180;9774;52.034;5.342;2023-08-06T07:04:34;100385.00;;;21.80
19282;BMP180;9774;52.034;5.342;2023-08-06T07:07:01;100380.00;;;21.80
19282;BMP180;9774;52.034;5.342;2023-08-06T07:09:28;100385.00;;;21.80
19282;BMP180;9774;52.034;5.342;2023-08-06T07:11:55;100388.00;;;21.80
19282;BMP180;9774;52.034;5.342;2023-08-06T07:14:25;100391.00;;;21.70
19282;BMP180;9774;52.034;5.342;2023-08-06T07:16:52;100395.00;;;21.70
19282;BMP180;9774;52.034;5.342;2023-08-06T07:19:19;100395.00;;;21.70
19282;BMP180;9774;52.034;5.342;2023-08-06T07:21:48;100394.00;;;21.70
19282;BMP180;9774;52.034;5.342;2023-08-06T07:24:15;100401.00;;;21.70
19282;BMP180;9774;52.034;5.342;2023-08-06T07:26:42;100403.00;;;21.60
19282;BMP180;9774;52.034;5.342;2023-08-06T07:29:09;100402.00;;;21.60
19282;BMP180;9774;52.034;5.342;2023-08-06T07:31:36;100412.00;;;21.50
19282;BMP180;9774;52.034;5.342;2023-08-06T07:34:03;100410.00;;;21.40
19282;BMP180;9774;52.034;5.342;2023-08-06T07:36:30;100416.00;;;21.40
19282;BMP180;9774;52.034;5.342;2023-08-06T07:38:59;100420.00;;;21.40
19282;BMP180;9774;52.034;5.342;2023-08-06T07:41:26;100424.00;;;21.40
19282;BMP180;9774;52.034;5.342;2023-08-06T07:43:53;100422.00;;;21.40
19282;BMP180;9774;52.034;5.342;2023-08-06T07:46:20;100421.00;;;21.30
19282;BMP180;9774;52.034;5.342;2023-08-06T07:48:47;100428.00;;;21.30
19282;BMP180;9774;52.034;5.342;2023-08-06T07:51:14;100421.00;;;21.30
19282;BMP180;9774;52.034;5.342;2023-08-06T07:53:41;100431.00;;;21.30
19282;BMP180;9774;52.034;5.342;2023-08-06T07:56:09;100417.00;;;21.20
19282;BMP180;9774;52.034;5.342;2023-08-06T07:58:36;100427.00;;;21.10
19282;BMP180;9774;52.034;5.342;2023-08-06T08:01:03;100426.00;;;21.00
19282;BMP180;9774;52.034;5.342;2023-08-06T08:03:30;100422.00;;;21.00
19282;BMP180;9774;52.034;5.342;2023-08-06T08:05:57;100436.00;;;20.90
19282;BMP180;9774;52.034;5.342;2023-08-06T08:08:24;100435.00;;;20.80
19282;BMP180;9774;52.034;5.342;2023-08-06T08:10:51;100430.00;;;20.70
19282;BMP180;9774;52.034;5.342;2023-08-06T08:13:19;100435.00;;;20.60
19282;BMP180;9774;52.034;5.342;2023-08-06T08:15:46;100442.00;;;20.60
19282;BMP180;9774;52.034;5.342;2023-08-06T08:18:13;100443.00;;;20.50
19282;BMP180;9774;52.034;5.342;2023-08-06T08:20:40;100450.00;;;20.50
19282;BMP180;9774;52.034;5.342;2023-08-06T08:23:07;100447.00;;;20.40
19282;BMP180;9774;52.034;5.342;2023-08-06T08:25:34;100452.00;;;20.30
19282;BMP180;9774;52.034;5.342;2023-08-06T08:28:01;100455.00;;;20.30
19282;BMP180;9774;52.034;5.342;2023-08-06T08:30:29;100457.00;;;20.20
19282;BMP180;9774;52.034;5.342;2023-08-06T08:32:56;100460.00;;;20.10
19282;BMP180;9774;52.034;5.342;2023-08-06T08:35:23;100461.00;;;20.00
19282;BMP180;9774;52.034;5.342;2023-08-06T08:37:50;100456.00;;;20.00
19282;BMP180;9774;52.034;5.342;2023-08-06T08:40:18;100467.00;;;19.90
19282;BMP180;9774;52.034;5.342;2023-08-06T08:42:45;100457.00;;;19.80
19282;BMP180;9774;52.034;5.342;2023-08-06T08:45:14;100449.00;;;19.70
19282;BMP180;9774;52.034;5.342;2023-08-06T08:47:43;100454.00;;;19.70
19282;BMP180;9774;52.034;5.342;2023-08-06T08:50:11;100463.00;;;19.70
19282;BMP180;9774;52.034;5.342;2023-08-06T08:52:39;100464.00;;;19.70
19282;BMP180;9774;52.034;5.342;2023-08-06T08:55:08;100462.00;;;19.60
19282;BMP180;9774;52.034;5.342;2023-08-06T08:57:35;100466.00;;;19.60
19282;BMP180;9774;52.034;5.342;2023-08-06T09:00:03;100465.00;;;19.60
19282;BMP180;9774;52.034;5.342;2023-08-06T09:02:32;100467.00;;;19.60
19282;BMP180;9774;52.034;5.342;2023-08-06T09:05:03;100464.00;;;19.60
19282;BMP180;9774;52.034;5.342;2023-08-06T09:07:35;100468.00;;;19.60
19282;BMP180;9774;52.034;5.342;2023-08-06T09:10:10;100474.00;;;19.60
19282;BMP180;9774;52.034;5.342;2023-08-06T09:12:38;100470.00;;;19.60
19282;BMP180;9774;52.034;5.342;2023-08-06T09:15:06;100481.00;;;19.60
19282;BMP180;9774;52.034;5.342;2023-08-06T09:17:33;100482.00;;;19.70
19282;BMP180;9774;52.034;5.342;2023-08-06T09:20:10;100481.00;;;19.60
19282;BMP180;9774;52.034;5.342;2023-08-06T09:22:37;100484.00;;;19.70
19282;BMP180;9774;52.034;5.342;2023-08-06T09:25:06;100491.00;;;19.80
19282;BMP180;9774;52.034;5.342;2023-08-06T09:27:36;100489.00;;;19.80
19282;BMP180;9774;52.034;5.342;2023-08-06T09:30:04;100492.00;;;19.90
19282;BMP180;9774;52.034;5.342;2023-08-06T09:32:45;100491.00;;;19.80
19282;BMP180;9774;52.034;5.342;2023-08-06T09:35:18;100495.00;;;19.90
19282;BMP180;9774;52.034;5.342;2023-08-06T09:37:46;100503.00;;;20.00
19282;BMP180;9774;52.034;5.342;2023-08-06T09:40:27;100513.00;;;20.00
19282;BMP180;9774;52.034;5.342;2023-08-06T09:42:55;100511.00;;;20.10
19282;BMP180;9774;52.034;5.342;2023-08-06T09:45:22;100516.00;;;20.20
19282;BMP180;9774;52.034;5.342;2023-08-06T09:47:49;100521.00;;;20.30
19282;BMP180;9774;52.034;5.342;2023-08-06T09:50:20;100521.00;;;20.30
19282;BMP180;9774;52.034;5.342;2023-08-06T09:52:47;100523.00;;;20.40
19282;BMP180;9774;52.034;5.342;2023-08-06T09:55:15;100528.00;;;20.40
19282;BMP180;9774;52.034;5.342;2023-08-06T09:57:43;100525.00;;;20.50
19282;BMP180;9774;52.034;5.342;2023-08-06T10:00:12;100525.00;;;20.50
19282;BMP180;9774;52.034;5.342;2023-08-06T10:02:40;100532.00;;;20.50
19282;BMP180;9774;52.034;5.342;2023-08-06T10:05:08;100531.00;;;20.60
19282;BMP180;9774;52.034;5.342;2023-08-06T10:07:38;100531.00;;;20.60
19282;BMP180;9774;52.034;5.342;2023-08-06T10:10:07;100533.00;;;20.70
19282;BMP180;9774;52.034;5.342;2023-08-06T10:12:39;100538.00;;;20.70
19282;BMP180;9774;52.034;5.342;2023-08-06T10:15:11;100534.00;;;20.70
19282;BMP180;9774;52.034;5.342;2023-08-06T10:17:40;100545.00;;;20.80
19282;BMP180;9774;52.034;5.342;2023-08-06T10:20:08;100536.00;;;20.80
19282;BMP180;9774;52.034;5.342;2023-08-06T10:22:43;100541.00;;;20.80
19282;BMP180;9774;52.034;5.342;2023-08-06T10:25:11;100540.00;;;20.90
19282;BMP180;9774;52.034;5.342;2023-08-06T10:27:54;100541.00;;;20.80
19282;BMP180;9774;52.034;5.342;2023-08-06T10:30:26;100549.00;;;20.90
19282;BMP180;9774;52.034;5.342;2023-08-06T10:32:55;100550.00;;;21.00
19282;BMP180;9774;52.034;5.342;2023-08-06T10:35:31;100551.00;;;21.00
19282;BMP180;9774;52.034;5.342;2023-08-06T10:38:03;100561.00;;;21.00
19282;BMP180;9774;52.034;5.342;2023-08-06T10:40:31;100559.00;;;21.10
19282;BMP180;9774;52.034;5.342;2023-08-06T10:42:59;100560.00;;;21.10
19282;BMP180;9774;52.034;5.342;2023-08-06T10:45:27;100571.00;;;21.10
19282;BMP180;9774;52.034;5.342;2023-08-06T10:47:56;100562.00;;;21.10
19282;BMP180;9774;52.034;5.342;2023-08-06T10:50:24;100569.00;;;21.10
19282;BMP180;9774;52.034;5.342;2023-08-06T10:52:52;100563.00;;;21.10
19282;BMP180;9774;52.034;5.342;2023-08-06T10:55:25;100569.00;;;21.10
19282;BMP180;9774;52.034;5.342;2023-08-06T10:57:53;100571.00;;;21.20
19282;BMP180;9774;52.034;5.342;2023-08-06T11:00:22;100577.00;;;21.20
19282;BMP180;9774;52.034;5.342;2023-08-06T11:02:50;100570.00;;;21.20
19282;BMP180;9774;52.034;5.342;2023-08-06T11:05:17;100575.00;;;21.20
19282;BMP180;9774;52.034;5.342;2023-08-06T11:07:45;100574.00;;;21.20
19282;BMP180;9774;52.034;5.342;2023-08-06T11:10:14;100582.00;;;21.20
19282;BMP180;9774;52.034;5.342;2023-08-06T11:12:42;100583.00;;;21.20
19282;BMP180;9774;52.034;5.342;2023-08-06T11:15:10;100580.00;;;21.30
19282;BMP180;9774;52.034;5.342;2023-08-06T11:17:40;100581.00;;;21.30
19282;BMP180;9774;52.034;5.342;2023-08-06T11:20:09;100576.00;;;21.30
19282;BMP180;9774;52.034;5.342;2023-08-06T11:22:37;100580.00;;;21.40
19282;BMP180;9774;52.034;5.342;2023-08-06T11:25:06;100575.00;;;21.40
19282;BMP180;9774;52.034;5.342;2023-08-06T11:27:34;100581.00;;;21.40
19282;BMP180;9774;52.034;5.342;2023-08-06T11:30:03;100582.00;;;21.50
19282;BMP180;9774;52.034;5.342;2023-08-06T11:32:30;100593.00;;;21.50
19282;BMP180;9774;52.034;5.342;2023-08-06T11:34:58;100594.00;;;21.50
19282;BMP180;9774;52.034;5.342;2023-08-06T11:37:25;100593.00;;;21.60
19282;BMP180;9774;52.034;5.342;2023-08-06T11:39:52;100583.00;;;21.60
19282;BMP180;9774;52.034;5.342;2023-08-06T11:42:19;100596.00;;;21.70
19282;BMP180;9774;52.034;5.342;2023-08-06T11:44:47;100596.00;;;21.60
19282;BMP180;9774;52.034;5.342;2023-08-06T11:47:17;100593.00;;;21.70
19282;BMP180;9774;52.034;5.342;2023-08-06T11:49:46;100596.00;;;21.70
19282;BMP180;9774;52.034;5.342;2023-08-06T11:52:18;100607.00;;;21.70
19282;BMP180;9774;52.034;5.342;2023-08-06T11:54:47;100603.00;;;21.70
19282;BMP180;9774;52.034;5.342;2023-08-06T11:57:15;100610.00;;;21.70
19282;BMP180;9774;52.034;5.342;2023-08-06T11:59:43;100605.00;;;21.70
19282;BMP180;9774;52.034;5.342;2023-08-06T12:02:10;100611.00;;;21.70
19282;BMP180;9774;52.034;5.342;2023-08-06T12:05:02;100609.00;;;21.60
19282;BMP180;9774;52.034;5.342;2023-08-06T12:07:31;100605.00;;;21.70
19282;BMP180;9774;52.034;5.342;2023-08-06T12:09:59;100614.00;;;21.70
19282;BMP180;9774;52.034;5.342;2023-08-06T12:12:27;100613.00;;;21.70
19282;BMP180;9774;52.034;5.342;2023-08-06T12:14:54;100616.00;;;21.70
19282;BMP180;9774;52.034;5.342;2023-08-06T12:17:22;100619.00;;;21.80
19282;BMP180;9774;52.034;5.342;2023-08-06T12:19:49;100621.00;;;21.80
19282;BMP180;9774;52.034;5.342;2023-08-06T12:22:18;100620.00;;;21.70
19282;BMP180;9774;52.034;5.342;2023-08-06T12:24:46;100619.00;;;21.80
19282;BMP180;9774;52.034;5.342;2023-08-06T12:27:14;100626.00;;;21.80
19282;BMP180;9774;52.034;5.342;2023-08-06T12:29:41;100627.00;;;21.80
19282;BMP180;9774;52.034;5.342;2023-08-06T12:32:17;100627.00;;;21.70
19282;BMP180;9774;52.034;5.342;2023-08-06T12:34:45;100636.00;;;21.80
19282;BMP180;9774;52.034;5.342;2023-08-06T12:37:12;100640.00;;;21.80
19282;BMP180;9774;52.034;5.342;2023-08-06T12:39:41;100636.00;;;21.70
19282;BMP180;9774;52.034;5.342;2023-08-06T12:42:08;100648.00;;;21.70
19282;BMP180;9774;52.034;5.342;2023-08-06T12:44:36;100643.00;;;21.70
19282;BMP180;9774;52.034;5.342;2023-08-06T12:47:03;100643.00;;;21.70
19282;BMP180;9774;52.034;5.342;2023-08-06T12:49:30;100645.00;;;21.70
19282;BMP180;9774;52.034;5.342;2023-08-06T12:51:59;100650.00;;;21.70
19282;BMP180;9774;52.034;5.342;2023-08-06T12:54:27;100650.00;;;21.70
19282;BMP180;9774;52.034;5.342;2023-08-06T12:56:55;100656.00;;;21.70
19282;BMP180;9774;52.034;5.342;2023-08-06T12:59:22;100656.00;;;21.80
19282;BMP180;9774;52.034;5.342;2023-08-06T13:01:49;100660.00;;;21.80
19282;BMP180;9774;52.034;5.342;2023-08-06T13:04:16;100667.00;;;21.80
19282;BMP180;9774;52.034;5.342;2023-08-06T13:06:43;100668.00;;;21.80
19282;BMP180;9774;52.034;5.342;2023-08-06T13:09:10;100678.00;;;21.80
19282;BMP180;9774;52.034;5.342;2023-08-06T13:11:39;100665.00;;;21.80
19282;BMP180;9774;52.034;5.342;2023-08-06T13:14:10;100674.00;;;21.80
19282;BMP180;9774;52.034;5.342;2023-08-06T13:16:40;100677.00;;;21.80
19282;BMP180;9774;52.034;5.342;2023-08-06T13:19:08;100671.00;;;21.80
19282;BMP180;9774;52.034;5.342;2023-08-06T13:21:59;100678.00;;;21.70
19282;BMP180;9774;52.034;5.342;2023-08-06T13:24:27;100679.00;;;21.90
19282;BMP180;9774;52.034;5.342;2023-08-06T13:26:54;100686.00;;;21.90
19282;BMP180;9774;52.034;5.342;2023-08-06T13:29:24;100687.00;;;21.90
19282;BMP180;9774;52.034;5.342;2023-08-06T13:31:51;100690.00;;;21.90
19282;BMP180;9774;52.034;5.342;2023-08-06T13:34:18;100688.00;;;21.90
19282;BMP180;9774;52.034;5.342;2023-08-06T13:36:46;100695.00;;;21.90
19282;BMP180;9774;52.034;5.342;2023-08-06T13:39:12;100691.00;;;21.90
19282;BMP180;9774;52.034;5.342;2023-08-06T13:41:42;100694.00;;;21.90
19282;BMP180;9774;52.034;5.342;2023-08-06T13:44:09;100688.00;;;21.90
19282;BMP180;9774;52.034;5.342;2023-08-06T13:46:37;100700.00;;;21.90
19282;BMP180;9774;52.034;5.342;2023-08-06T13:49:04;100698.00;;;21.90
19282;BMP180;9774;52.034;5.342;2023-08-06T13:51:31;100699.00;;;21.90
19282;BMP180;9774;52.034;5.342;2023-08-06T13:53:59;100699.00;;;21.90
19282;BMP180;9774;52.034;5.342;2023-08-06T13:56:26;100704.00;;;21.90
19282;BMP180;9774;52.034;5.342;2023-08-06T13:58:55;100705.00;;;21.90
19282;BMP180;9774;52.034;5.342;2023-08-06T14:01:22;100704.00;;;21.90
19282;BMP180;9774;52.034;5.342;2023-08-06T14:03:50;100709.00;;;21.90
19282;BMP180;9774;52.034;5.342;2023-08-06T14:06:17;100707.00;;;21.90
19282;BMP180;9774;52.034;5.342;2023-08-06T14:08:45;100708.00;;;21.90
19282;BMP180;9774;52.034;5.342;2023-08-06T14:11:12;100709.00;;;21.90
19282;BMP180;9774;52.034;5.342;2023-08-06T14:13:39;100709.00;;;21.90
19282;BMP180;9774;52.034;5.342;2023-08-06T14:16:06;100714.00;;;21.90